createdAt,value
2023-04-02T00:02:33.549Z,11.15
2023-04-02T00:05:52.371Z,11.15
2023-04-02T00:09:29.321Z,11.14
2023-04-02T00:12:31.586Z,11.20
2023-04-02T00:15:49.283Z,11.28
2023-04-02T00:18:55.043Z,11.34
2023-04-02T00:22:14.309Z,11.31
2023-04-02T00:25:23.331Z,11.20
2023-04-02T00:28:31.890Z,11.22
2023-04-02T00:31:50.340Z,11.18
2023-04-02T00:35:06.304Z,11.13
2023-04-02T00:38:17.130Z,11.14
2023-04-02T00:41:36.347Z,11.18
2023-04-02T00:44:46.768Z,11.25
2023-04-02T00:47:58.044Z,11.33
2023-04-02T00:51:26.321Z,11.30
2023-04-02T00:54:33.078Z,11.25
2023-04-02T00:57:50.531Z,11.13
2023-04-02T01:00:56.406Z,11.17
2023-04-02T01:04:12.430Z,11.20
2023-04-02T01:07:40.293Z,11.17
2023-04-02T01:11:13.551Z,11.16
2023-04-02T01:14:33.794Z,11.08
2023-04-02T01:18:09.131Z,11.05
2023-04-02T01:21:46.339Z,11.02
2023-04-02T01:24:57.433Z,11.06
2023-04-02T01:28:17.344Z,11.08
2023-04-02T01:31:36.586Z,11.02
2023-04-02T01:34:46.378Z,11.07
2023-04-02T01:38:11.594Z,11.03
2023-04-02T01:41:33.326Z,11.06
2023-04-02T01:44:46.861Z,10.98
2023-04-02T01:47:58.402Z,10.89
2023-04-02T01:51:14.338Z,10.81
2023-04-02T01:54:17.145Z,10.75
2023-04-02T01:57:31.362Z,10.70
2023-04-02T02:00:54.830Z,10.70
2023-04-02T02:04:13.356Z,10.74
2023-04-02T02:07:29.345Z,10.76
2023-04-02T02:10:39.246Z,10.78
2023-04-02T02:13:53.378Z,10.79
2023-04-02T02:17:03.358Z,10.88
2023-04-02T02:20:12.380Z,10.85
2023-04-02T02:23:21.548Z,10.91
2023-04-02T02:26:32.355Z,10.95
2023-04-02T02:29:52.609Z,10.96
2023-04-02T02:33:20.921Z,10.98
2023-04-02T02:36:44.381Z,10.95
2023-04-02T02:40:03.469Z,10.91
2023-04-02T02:43:22.170Z,10.96
2023-04-02T02:46:39.350Z,10.97
2023-04-02T02:49:44.936Z,11.05
2023-04-02T02:53:02.334Z,11.05
2023-04-02T02:56:11.476Z,11.16
2023-04-02T02:59:28.660Z,11.16
2023-04-02T03:02:41.309Z,10.99
2023-04-02T03:05:50.399Z,11.01
2023-04-02T03:09:23.407Z,11.05
2023-04-02T03:12:51.386Z,10.93
2023-04-02T03:16:22.868Z,10.89
2023-04-02T03:19:48.368Z,10.87
2023-04-02T03:23:13.400Z,10.74
2023-04-02T03:26:35.601Z,10.87
2023-04-02T03:29:59.975Z,10.85
2023-04-02T03:33:30.428Z,10.87
2023-04-02T03:36:46.521Z,10.77
2023-04-02T03:40:04.965Z,10.76
2023-04-02T03:43:27.387Z,10.77
2023-04-02T03:46:41.858Z,10.72
2023-04-02T03:50:03.436Z,10.57
2023-04-02T03:53:05.692Z,10.60
2023-04-02T03:56:38.404Z,10.54
2023-04-02T03:59:55.561Z,10.61
2023-04-02T04:03:16.605Z,10.54
2023-04-02T04:06:36.817Z,10.50
2023-04-02T04:09:54.399Z,10.51
2023-04-02T04:13:11.658Z,10.61
2023-04-02T04:16:34.783Z,10.60
2023-04-02T04:20:00.446Z,10.69
2023-04-02T04:23:17.984Z,10.65
2023-04-02T04:26:42.432Z,10.66
2023-04-02T04:29:57.909Z,10.63
2023-04-02T04:33:22.116Z,10.68
2023-04-02T04:36:31.656Z,10.81
2023-04-02T04:39:53.445Z,10.74
2023-04-02T04:43:00.602Z,10.71
2023-04-02T04:46:22.536Z,10.77
2023-04-02T04:49:51.421Z,10.85
2023-04-02T04:53:20.378Z,10.80
2023-04-02T04:56:33.432Z,10.72
2023-04-02T04:59:54.408Z,10.73
2023-04-02T05:03:30.434Z,10.58
2023-04-02T05:06:52.858Z,10.63
2023-04-02T05:10:29.473Z,10.56
2023-04-02T05:14:05.433Z,10.60
2023-04-02T05:17:16.950Z,10.58
2023-04-02T05:20:39.442Z,10.71
2023-04-02T05:23:55.715Z,10.86
2023-04-02T05:27:24.442Z,11.03
2023-04-02T05:30:56.151Z,11.14
2023-04-02T05:34:10.467Z,11.22
2023-04-02T05:37:29.423Z,11.30
2023-04-02T05:40:50.439Z,11.40
2023-04-02T05:44:01.989Z,11.41
2023-04-02T05:47:30.552Z,11.62
2023-04-02T05:50:46.459Z,11.66
2023-04-02T05:54:07.682Z,11.66
2023-04-02T05:57:39.390Z,11.82
2023-04-02T06:01:11.478Z,11.90
2023-04-02T06:04:23.850Z,12.12
2023-04-02T06:08:03.453Z,12.11
2023-04-02T06:11:20.495Z,12.00
2023-04-02T06:14:35.478Z,12.12
2023-04-02T06:17:56.924Z,12.07
2023-04-02T06:20:58.901Z,12.05
2023-04-02T06:24:18.500Z,12.21
2023-04-02T06:27:30.516Z,12.27
2023-04-02T06:30:41.521Z,12.24
2023-04-02T06:33:53.475Z,12.38
2023-04-02T06:37:24.257Z,12.32
2023-04-02T06:40:49.467Z,12.33
2023-04-02T06:44:09.461Z,12.32
2023-04-02T06:47:23.093Z,12.51
2023-04-02T06:50:54.598Z,12.73
2023-04-02T06:54:00.214Z,12.63
2023-04-02T06:57:17.513Z,12.76
2023-04-02T07:00:38.639Z,12.97
2023-04-02T07:03:50.670Z,13.17
2023-04-02T07:07:13.475Z,13.35
2023-04-02T07:10:15.395Z,13.38
2023-04-02T07:13:32.484Z,13.46
2023-04-02T07:16:52.762Z,13.57
2023-04-02T07:20:33.552Z,13.44
2023-04-02T07:23:35.289Z,13.33
2023-04-02T07:26:49.549Z,13.36
2023-04-02T07:30:00.741Z,13.56
2023-04-02T07:33:21.581Z,13.56
2023-04-02T07:36:30.534Z,13.95
2023-04-02T07:39:45.498Z,14.08
2023-04-02T07:42:47.630Z,13.84
2023-04-02T07:46:02.506Z,13.94
2023-04-02T07:49:10.520Z,14.13
2023-04-02T07:52:19.332Z,14.37
2023-04-02T07:55:37.734Z,14.49
2023-04-02T07:58:39.500Z,14.54
2023-04-02T08:01:54.648Z,14.44
2023-04-02T08:05:09.537Z,14.79
2023-04-02T08:08:25.266Z,15.26
2023-04-02T08:11:39.958Z,15.48
2023-04-02T08:14:54.473Z,15.58
2023-04-02T08:18:09.642Z,15.45
2023-04-02T08:21:18.557Z,15.47
2023-04-02T08:24:28.217Z,15.41
2023-04-02T08:27:37.054Z,15.21
2023-04-02T08:30:45.437Z,15.28
2023-04-02T08:33:53.862Z,15.01
2023-04-02T08:37:02.028Z,15.29
2023-04-02T08:40:11.549Z,15.09
2023-04-02T08:43:46.146Z,15.37
2023-04-02T08:46:59.696Z,15.45
2023-04-02T08:50:38.870Z,15.61
2023-04-02T08:53:55.627Z,15.81
2023-04-02T08:57:16.658Z,15.75
2023-04-02T09:00:47.099Z,15.56
2023-04-02T09:03:58.565Z,15.68
2023-04-02T09:07:23.873Z,16.14
2023-04-02T09:10:44.583Z,16.24
2023-04-02T09:14:05.861Z,16.27
2023-04-02T09:17:25.331Z,16.57
2023-04-02T09:20:34.566Z,16.86
2023-04-02T09:23:43.250Z,16.81
2023-04-02T09:26:52.563Z,16.80
2023-04-02T09:30:35.599Z,16.62
2023-04-02T09:33:52.421Z,16.51
2023-04-02T09:37:23.568Z,16.60
2023-04-02T09:40:29.733Z,16.33
2023-04-02T09:43:45.851Z,16.26
2023-04-02T09:46:52.560Z,16.52
2023-04-02T09:50:31.604Z,16.26
2023-04-02T09:53:39.064Z,16.09
2023-04-02T09:57:20.956Z,16.29
2023-04-02T10:00:32.263Z,16.34
2023-04-02T10:03:50.844Z,16.52
2023-04-02T10:07:08.952Z,16.16
2023-04-02T10:10:48.198Z,15.82
2023-04-02T10:14:06.813Z,16.20
2023-04-02T10:17:38.866Z,15.99
2023-04-02T10:24:22.988Z,16.70
2023-04-02T10:27:48.616Z,16.87
2023-04-02T10:31:15.943Z,16.57
2023-04-02T10:34:57.715Z,16.73
2023-04-02T10:38:34.304Z,16.72
2023-04-02T10:45:41.926Z,16.72
2023-04-02T10:49:08.616Z,16.87
2023-04-02T10:52:32.887Z,16.89
2023-04-02T10:55:46.855Z,17.02
2023-04-02T10:59:11.762Z,17.14
2023-04-02T11:02:41.054Z,17.09
2023-04-02T11:06:15.749Z,17.03
2023-04-02T11:09:30.605Z,16.96
2023-04-02T11:12:52.694Z,18.00
2023-04-02T11:15:54.743Z,22.93
2023-04-02T11:19:38.653Z,24.01
2023-04-02T11:22:50.274Z,22.15
2023-04-02T11:26:25.432Z,21.02
2023-04-02T11:29:46.814Z,19.93
2023-04-02T11:32:49.337Z,17.80
2023-04-02T11:36:04.681Z,17.12
2023-04-02T11:39:17.571Z,16.96
2023-04-02T11:42:36.666Z,16.77
2023-04-02T11:46:00.641Z,16.66
2023-04-02T11:49:36.079Z,18.05
2023-04-02T11:52:51.948Z,16.88
2023-04-02T11:56:25.774Z,16.95
2023-04-02T11:59:53.875Z,21.71
2023-04-02T12:03:28.835Z,26.59
2023-04-02T12:07:00.967Z,27.68
2023-04-02T12:10:42.792Z,27.33
2023-04-02T12:13:53.157Z,29.40
2023-04-02T12:17:01.695Z,25.93
2023-04-02T12:20:28.569Z,23.46
2023-04-02T12:24:05.663Z,28.26
2023-04-02T12:30:41.978Z,28.40
2023-04-02T12:34:21.342Z,29.00
2023-04-02T12:38:24.787Z,27.31
2023-04-02T12:41:45.973Z,23.94
2023-04-02T12:51:45.709Z,19.14
2023-04-02T12:54:57.705Z,18.56
2023-04-02T12:58:38.189Z,18.62
2023-04-02T13:01:57.971Z,18.44
2023-04-02T13:05:15.694Z,18.37
2023-04-02T13:08:30.884Z,18.27
2023-04-02T13:11:48.781Z,18.11
2023-04-02T13:15:06.020Z,18.00
2023-04-02T13:18:21.042Z,17.81
2023-04-02T13:21:41.315Z,17.91
2023-04-02T13:24:49.257Z,18.00
2023-04-02T13:27:58.769Z,17.92
2023-04-02T13:31:21.785Z,18.22
2023-04-02T13:34:24.021Z,18.33
2023-04-02T13:37:38.941Z,17.70
2023-04-02T13:40:42.440Z,17.21
2023-04-02T13:44:00.884Z,17.14
2023-04-02T13:50:43.478Z,17.40
2023-04-02T13:53:52.203Z,17.55
2023-04-02T14:00:32.066Z,17.83
2023-04-02T14:03:47.726Z,17.70
2023-04-02T14:07:33.010Z,17.72
2023-04-02T14:10:58.438Z,17.71
2023-04-02T14:14:28.842Z,17.57
2023-04-02T14:18:06.821Z,17.59
2023-04-02T14:21:33.913Z,17.26
2023-04-02T14:25:10.952Z,17.26
2023-04-02T14:28:32.788Z,17.37
2023-04-02T14:32:01.827Z,17.35
2023-04-02T14:35:27.291Z,17.39
2023-04-02T14:38:59.064Z,17.32
2023-04-02T14:42:10.118Z,17.31
2023-04-02T14:45:44.758Z,17.00
2023-04-02T14:49:08.784Z,17.03
2023-04-02T14:52:22.695Z,17.13
2023-04-02T14:55:40.753Z,17.06
2023-04-02T14:58:57.234Z,16.63
2023-04-02T15:02:23.842Z,16.16
2023-04-02T15:05:46.102Z,15.97
2023-04-02T15:09:13.787Z,15.64
2023-04-02T15:12:35.069Z,15.12
2023-04-02T15:15:52.199Z,15.05
2023-04-02T15:19:08.832Z,14.83
2023-04-02T15:22:48.833Z,14.34
2023-04-02T15:26:00.877Z,14.11
2023-04-02T15:29:36.779Z,13.86
2023-04-02T15:32:40.755Z,13.58
2023-04-02T15:36:13.866Z,13.68
2023-04-02T15:39:36.799Z,13.50
2023-04-02T15:42:58.501Z,13.30
2023-04-02T15:46:27.926Z,13.15
2023-04-02T15:50:26.743Z,13.03
2023-04-02T15:53:58.528Z,12.81
2023-04-02T15:57:30.864Z,12.84
2023-04-02T16:00:44.931Z,12.78
2023-04-02T16:04:21.144Z,12.70
2023-04-02T16:11:35.002Z,12.71
2023-04-02T16:14:45.796Z,12.95
2023-04-02T16:18:07.894Z,13.15
2023-04-02T16:24:44.845Z,13.44
2023-04-02T16:28:12.855Z,13.34
2023-04-02T16:31:33.938Z,13.37
2023-04-02T16:35:20.992Z,13.44
2023-04-02T16:38:47.769Z,13.57
2023-04-02T16:42:27.875Z,13.54
2023-04-02T16:46:08.915Z,13.55
2023-04-02T16:49:35.442Z,13.57
2023-04-02T16:52:58.900Z,13.60
2023-04-02T16:56:37.890Z,13.59
2023-04-02T16:59:59.137Z,13.56
2023-04-02T17:04:08.945Z,13.41
2023-04-02T17:11:51.714Z,13.22
2023-04-02T17:15:01.326Z,13.08
2023-04-02T17:18:27.876Z,13.05
2023-04-02T17:21:49.040Z,13.00
2023-04-02T17:25:07.891Z,12.90
2023-04-02T17:36:21.214Z,13.48
2023-04-02T17:39:42.525Z,12.74
2023-04-02T17:46:54.771Z,12.50
2023-04-02T17:50:36.617Z,12.48
2023-04-02T17:54:10.261Z,12.44
2023-04-02T17:57:38.279Z,12.26
2023-04-02T18:01:25.256Z,12.24
2023-04-02T18:04:46.256Z,11.93
2023-04-02T18:08:14.698Z,11.73
2023-04-02T18:11:46.902Z,11.70
2023-04-02T18:15:23.264Z,11.58
2023-04-02T18:18:50.471Z,11.67
2023-04-02T18:22:25.301Z,11.62
2023-04-02T18:25:49.313Z,11.41
2023-04-02T18:29:32.190Z,11.17
2023-04-02T18:33:18.751Z,11.21
2023-04-02T18:36:47.246Z,11.19
2023-04-02T18:40:24.197Z,11.19
2023-04-02T18:43:57.328Z,11.07
2023-04-02T18:47:33.232Z,11.08
2023-04-02T18:50:41.744Z,10.98
2023-04-02T18:53:53.247Z,10.88
2023-04-02T18:57:16.567Z,10.78
2023-04-02T19:00:25.936Z,10.86
2023-04-02T19:03:57.353Z,10.89
2023-04-02T19:07:15.370Z,10.68
2023-04-02T19:10:32.058Z,10.64
2023-04-02T19:13:40.197Z,10.47
2023-04-02T19:17:06.757Z,10.43
2023-04-02T19:20:39.217Z,10.39
2023-04-02T19:24:15.201Z,10.13
2023-04-02T19:27:29.229Z,10.21
2023-04-02T19:31:16.481Z,10.03
2023-04-02T19:34:40.191Z,10.12
2023-04-02T19:38:33.313Z,10.14
2023-04-02T19:41:53.653Z,10.06
2023-04-02T19:45:04.982Z,10.11
2023-04-02T19:48:31.438Z,10.16
2023-04-02T19:51:33.311Z,10.24
2023-04-02T19:54:48.256Z,10.24
2023-04-02T19:57:51.322Z,10.18
2023-04-02T20:01:08.412Z,10.30
2023-04-02T20:04:17.992Z,10.20
2023-04-02T20:07:26.241Z,10.15
2023-04-02T20:10:45.292Z,10.25
2023-04-02T20:13:48.213Z,10.33
2023-04-02T20:17:06.378Z,10.40
2023-04-02T20:20:16.193Z,10.39
2023-04-02T20:23:25.537Z,10.34
2023-04-02T20:26:37.748Z,10.14
2023-04-02T20:29:46.577Z,10.06
2023-04-02T20:33:09.131Z,10.14
2023-04-02T20:36:15.110Z,10.07
2023-04-02T20:39:29.297Z,10.04
2023-04-02T20:42:44.789Z,9.93
2023-04-02T20:45:55.949Z,9.82
2023-04-02T20:49:05.299Z,9.72
2023-04-02T20:52:17.525Z,9.70
2023-04-02T20:55:25.560Z,9.82
2023-04-02T20:58:35.786Z,9.74
2023-04-02T21:01:51.429Z,9.46
2023-04-02T21:04:53.212Z,9.60
2023-04-02T21:08:08.304Z,9.61
2023-04-02T21:11:17.272Z,9.54
2023-04-02T21:14:32.286Z,9.55
2023-04-02T21:17:40.390Z,9.68
2023-04-02T21:21:09.281Z,9.77
2023-04-02T21:24:21.226Z,9.72
2023-04-02T21:27:30.297Z,9.60
2023-04-02T21:30:45.581Z,9.65
2023-04-02T21:34:00.887Z,9.75
2023-04-02T21:37:15.467Z,9.83
2023-04-02T21:40:37.351Z,9.89
2023-04-02T21:43:54.290Z,9.99
2023-04-02T21:47:02.354Z,10.00
2023-04-02T21:50:17.375Z,10.16
2023-04-02T21:53:25.345Z,10.23
2023-04-02T21:56:36.541Z,10.23
2023-04-02T22:03:10.048Z,10.21
2023-04-02T22:06:27.327Z,10.16
2023-04-02T22:09:36.141Z,10.18
2023-04-02T22:12:57.312Z,10.17
2023-04-02T22:16:11.145Z,10.10
2023-04-02T22:19:22.303Z,10.20
2023-04-02T22:25:56.309Z,10.03
2023-04-02T22:29:11.314Z,9.92
2023-04-02T22:32:19.612Z,9.58
2023-04-02T22:35:36.362Z,9.28
2023-04-02T22:38:38.898Z,9.45
2023-04-02T22:41:53.380Z,9.51
2023-04-02T22:45:10.605Z,9.54
2023-04-02T22:48:19.304Z,9.59
2023-04-02T22:51:30.519Z,9.52
2023-04-02T22:54:45.334Z,9.35
2023-04-02T22:57:53.982Z,9.27
2023-04-02T23:01:02.293Z,9.38
2023-04-02T23:04:17.345Z,9.14
2023-04-02T23:07:33.375Z,9.36
2023-04-02T23:10:42.922Z,9.37
2023-04-02T23:13:53.428Z,9.41
2023-04-02T23:17:08.653Z,9.46
2023-04-02T23:20:21.392Z,9.46
2023-04-02T23:23:30.456Z,9.51
2023-04-02T23:26:45.366Z,9.42
2023-04-02T23:29:55.663Z,9.17
2023-04-02T23:33:11.581Z,9.02
2023-04-02T23:36:41.402Z,8.90
2023-04-02T23:39:50.902Z,8.87
2023-04-02T23:42:59.365Z,8.80
2023-04-02T23:46:08.470Z,8.75
2023-04-02T23:49:25.338Z,8.65
2023-04-02T23:52:27.174Z,8.77
2023-04-02T23:55:41.356Z,8.66
2023-04-02T23:58:43.844Z,8.64
